Flight Track Log - Related Links

Times and Time Zones

All times are in EDT time to prevent confusion due to time zone crossing. See the SWA165 flight status page for this flight to view local times or setup timezone preferences in your user account.

Time Position Orientation Groundspeed Altitude Reporting Facility
EDT Latitude Longitude Course Direction KTS MPH feet Rate Location/Type
Sun 10:43:27 AM 28.4000 -81.3000 256° West 161 185 700  Level Orlando TRACON
Sun 10:45:39 AM 28.3731 -81.4253 256° West 206 237 5,800 2,406 Climbing Jacksonville Center
Sun 10:46:39 AM 28.3761 -81.4958 273° West 236 272 8,400 3,000 Climbing Jacksonville Center
Sun 10:47:39 AM 28.3958 -81.5806 285° West 262 302 11,800 3,000 Climbing Jacksonville Center
Sun 10:48:39 AM 28.4239 -81.6864 287° West 304 350 14,400 2,420 Climbing Jacksonville Center
Sun 10:49:38 AM 28.4478 -81.7947 284° West 341 392 16,600 2,600 Climbing Jacksonville Center
Sun 10:50:39 AM 28.4717 -81.9103 283° West 362 417 19,600 2,800 Climbing Jacksonville Center
Sun 10:51:38 AM 28.5017 -82.0303 286° West 385 443 22,200 2,350 Climbing Jacksonville Center
Sun 10:52:39 AM 28.5253 -82.1364 284° West 390 449 24,300 2,033 Climbing Jacksonville Center
Sun 10:53:39 AM 28.5511 -82.2664 283° West 402 463 26,300 1,950 Climbing Jacksonville Center
Sun 10:54:39 AM 28.5956 -82.3867 293° West 414 476 28,200 1,800 Climbing Jacksonville Center
Sun 10:55:39 AM 28.7064 -82.4286 342° North 379 436 29,900 1,250 Climbing Jacksonville Center
Sun 10:56:39 AM 28.8253 -82.4614 346° North 391 450 30,700 1,050 Climbing Jacksonville Center
Sun 10:57:39 AM 28.9403 -82.4939 346° North 408 470 32,000 850 Climbing Jacksonville Center
Sun 10:58:39 AM 29.0531 -82.5267 346° North 418 481 32,400 1,000 Climbing Jacksonville Center
Sun 10:59:39 AM 29.1681 -82.5619 345° North 418 481 34,000 800 Climbing Jacksonville Center
Sun 11:00:39 AM 29.2786 -82.5975 344° North 418 481 34,000  Level Jacksonville Center
Sun 11:01:39 AM 29.3914 -82.6303 346° North 413 475 34,000  Level Jacksonville Center
Sun 11:02:39 AM 29.5042 -82.6683 344° North 413 475 34,000 800 Level Jacksonville Center
Sun 11:03:39 AM 29.6275 -82.7039 346° North 421 484 35,600 1,900 Climbing Jacksonville Center
Sun 11:04:39 AM 29.7342 -82.7394 344° North 408 470 37,800 1,200 Climbing Jacksonville Center
Sun 11:05:39 AM 29.8383 -82.7681 347° North 391 450 38,000 100 Climbing Jacksonville Center
Sun 11:06:39 AM 29.9386 -82.7992 345° North 380 437 38,000  Level Jacksonville Center
Sun 11:07:39 AM 30.0431 -82.8278 347° North 375 432 38,000  Level Jacksonville Center
Sun 11:08:39 AM 30.1433 -82.8589 345° North 375 432 38,000  Level Jacksonville Center
Sun 11:09:39 AM 30.2456 -82.8925 344° North 375 432 38,000  Level Jacksonville Center
Sun 11:10:39 AM 30.3458 -82.9239 345° North 375 432 38,000  Level Jacksonville Center
Sun 11:11:39 AM 30.4481 -82.9575 344° North 375 432 38,000  Level Jacksonville Center
Sun 11:12:39 AM 30.5506 -82.9842 347° North 375 432 38,000  Level Jacksonville Center
Sun 11:13:39 AM 30.6506 -83.0206 343° North 375 432 38,000  Level Jacksonville Center
Sun 11:14:39 AM 30.7550 -83.0497 347° North 380 437 38,000  Level Jacksonville Center
Sun 11:15:39 AM 30.8469 -83.0789 345° North 380 437 38,000  Level Jacksonville Center
Sun 11:16:39 AM 30.9492 -83.1131 344° North 380 437 38,000  Level Jacksonville Center
Sun 11:17:39 AM 31.0533 -83.1472 344° North 380 437 38,000  Level Jacksonville Center
Sun 11:18:39 AM 31.1578 -83.1814 344° North 380 437 38,000  Level Jacksonville Center
Sun 11:20:20 AM 31.3433 -83.2389 345° North 377 434 38,000  Level Atlanta Center
Sun 11:21:20 AM 31.4458 -83.2722 344° North 377 434 38,000  Level Atlanta Center
Sun 11:22:20 AM 31.5503 -83.3031 346° North 377 434 38,000  Level Atlanta Center
Sun 11:23:20 AM 31.6547 -83.3361 345° North 377 434 38,000  Level Atlanta Center
Sun 11:24:20 AM 31.7594 -83.3719 344° North 377 434 38,000 -200 Level Atlanta Center
Sun 11:25:20 AM 31.8639 -83.4056 345° North 377 434 37,600 -650 Descending Atlanta Center
Sun 11:26:20 AM 31.9683 -83.4392 345° North 377 434 36,700 -800 Descending Atlanta Center
Sun 11:27:20 AM 32.0792 -83.4750 345° North 377 434 36,000 -350 Descending Atlanta Center
Sun 11:28:20 AM 32.1881 -83.5111 344° North 389 448 36,000  Level Atlanta Center
Sun 11:29:20 AM 32.2967 -83.5475 344° North 395 455 36,000  Level Atlanta Center
Sun 11:30:20 AM 32.4053 -83.5811 345° North 395 455 36,000  Level Atlanta Center
Sun 11:31:20 AM 32.5161 -83.6175 345° North 395 455 36,000  Level Atlanta Center
Sun 11:32:20 AM 32.6247 -83.6542 344° North 395 455 36,000  Level Atlanta Center
Sun 11:33:20 AM 32.7333 -83.6906 344° North 424 488 36,000  Level Atlanta Center
Sun 11:34:20 AM 32.8442 -83.7247 345° North 397 457 36,000  Level Atlanta Center
Sun 11:35:20 AM 32.9569 -83.7639 344° North 402 463 36,000  Level Atlanta Center
Sun 11:36:20 AM 33.0425 -83.7961 342° North 402 463 36,000  Level Atlanta Center
Sun 11:37:20 AM 33.1636 -83.8328 346° North 396 456 36,000  Level Atlanta Center
Sun 11:38:20 AM 33.2722 -83.8700 344° North 401 461 36,000  Level Atlanta Center
Sun 11:39:20 AM 33.3872 -83.9069 345° North 401 461 36,000  Level Atlanta Center
Sun 11:40:20 AM 33.4958 -83.9417 345° North 396 456 36,000  Level Atlanta Center
Sun 11:41:20 AM 33.6022 -83.9764 345° North 390 449 36,000  Level Atlanta Center
Sun 11:42:20 AM 33.7108 -84.0139 344° North 397 457 36,000  Level Atlanta Center
Sun 11:43:20 AM 33.8150 -84.0464 345° North 397 457 36,000  Level Atlanta Center
Sun 11:44:20 AM 33.9236 -84.0839 344° North 397 457 36,000  Level Atlanta Center
Sun 11:45:20 AM 34.0300 -84.1214 344° North 397 457 36,000  Level Atlanta Center
Sun 11:46:20 AM 34.1386 -84.1567 345° North 397 457 36,000  Level Atlanta Center
Sun 11:47:20 AM 34.2469 -84.1947 344° North 397 457 36,000  Level Atlanta Center
Sun 11:48:20 AM 34.3533 -84.2300 345° North 397 457 36,000  Level Atlanta Center
Sun 11:49:20 AM 34.4619 -84.2681 344° North 397 457 36,000  Level Atlanta Center
Sun 11:50:20 AM 34.5703 -84.3036 345° North 397 457 36,000  Level Atlanta Center
Sun 11:51:20 AM 34.6767 -84.3394 345° North 397 457 36,000  Level Atlanta Center
Sun 11:52:20 AM 34.7831 -84.3778 344° North 397 457 36,000  Level Atlanta Center
Sun 11:53:20 AM 34.8914 -84.4161 344° North 397 457 36,000  Level Atlanta Center
Sun 11:54:20 AM 34.9978 -84.4572 342° North 397 457 36,000  Level Atlanta Center
Sun 11:55:20 AM 35.1042 -84.4933 344° North 397 457 36,000  Level Atlanta Center
Sun 11:56:20 AM 35.2167 -84.5294 345° North 402 463 36,000  Level Atlanta Center
Sun 11:57:20 AM 35.3228 -84.5683 343° North 402 463 36,000  Level Atlanta Center
Sun 11:58:20 AM 35.4333 -84.6072 344° North 402 463 36,000  Level Atlanta Center
Sun 11:59:20 AM 35.5417 -84.6436 345° North 402 463 36,000  Level Atlanta Center
Sun 12:01:49 PM 35.8022 -84.7350 344° North 405 466 36,000  Level Indianapolis Center
Sun 12:02:51 PM 35.9083 -84.7719 344° North 405 466 36,000  Level Indianapolis Center
Sun 12:03:53 PM 36.0372 -84.8175 344° North 409 471 36,000  Level Indianapolis Center
Sun 12:04:54 PM 36.1442 -84.8567 344° North 408 470 36,000  Level Indianapolis Center
Sun 12:05:56 PM 36.2533 -84.8953 344° North 407 468 36,000  Level Indianapolis Center
Sun 12:06:58 PM 36.3631 -84.9361 343° North 409 471 36,000  Level Indianapolis Center
Sun 12:07:59 PM 36.4747 -84.9761 344° North 413 475 36,000  Level Indianapolis Center
Sun 12:09:01 PM 36.5858 -85.0164 344° North 414 476 36,000  Level Indianapolis Center
Sun 12:10:03 PM 36.7189 -85.0639 344° North 414 476 36,000  Level Indianapolis Center
Sun 12:11:05 PM 36.8322 -85.0942 348° North 414 476 36,000  Level Indianapolis Center
Sun 12:12:06 PM 36.9472 -85.1214 349° North 416 479 36,000  Level Indianapolis Center
Sun 12:13:08 PM 37.0522 -85.1469 349° North 416 479 36,000  Level Indianapolis Center
Sun 12:14:10 PM 37.1872 -85.1819 348° North 418 481 36,000  Level Indianapolis Center
Sun 12:15:12 PM 37.3072 -85.2108 349° North 430 495 36,000  Level Indianapolis Center
Sun 12:16:14 PM 37.4250 -85.2408 349° North 431 496 36,000  Level Indianapolis Center
Sun 12:17:15 PM 37.5439 -85.2711 349° North 431 496 36,000  Level Indianapolis Center
Sun 12:18:17 PM 37.6644 -85.3006 349° North 434 499 36,000  Level Indianapolis Center
Sun 12:19:19 PM 37.7825 -85.3308 349° North 434 499 36,000 -145 Level Indianapolis Center
Sun 12:20:21 PM 37.9142 -85.3650 348° North 434 499 35,700 -488 Descending Indianapolis Center
Sun 12:21:22 PM 38.0306 -85.3956 348° North 431 496 35,000 -341 Descending Indianapolis Center
Sun 12:22:24 PM 38.1500 -85.4264 349° North 432 497 35,000  Level Indianapolis Center
Sun 12:23:26 PM 38.2689 -85.4556 349° North 432 497 35,000  Level Indianapolis Center
Sun 12:24:28 PM 38.3869 -85.4878 348° North 433 498 35,000  Level Indianapolis Center
Sun 12:25:30 PM 38.5053 -85.5183 349° North 433 498 35,000  Level Indianapolis Center
Sun 12:26:31 PM 38.6408 -85.5525 349° North 433 498 35,000  Level Indianapolis Center
Sun 12:27:33 PM 38.7597 -85.5847 348° North 433 498 35,000 -435 Level Indianapolis Center
Sun 12:28:35 PM 38.8789 -85.6158 349° North 434 499 34,100 -1,065 Descending Indianapolis Center
Sun 12:29:37 PM 39.0022 -85.6481 349° North 448 516 32,800 -1,355 Descending Indianapolis Center
Sun 12:30:39 PM 39.1242 -85.6792 349° North 449 517 31,300 -1,463 Descending Indianapolis Center
Sun 12:31:40 PM 39.2625 -85.7161 348° North 432 497 29,800 -1,122 Descending Indianapolis Center
Sun 12:32:42 PM 39.3817 -85.7481 348° North 433 498 29,000 -823 Descending Indianapolis Center
Sun 12:33:44 PM 39.5061 -85.7808 349° North 451 519 28,100 -726 Descending Indianapolis Center
Sun 12:34:46 PM 39.6306 -85.8136 349° North 456 525 27,500 -774 Descending Indianapolis Center
Sun 12:35:48 PM 39.7533 -85.8472 348° North 457 526 26,500 -1,065 Descending Indianapolis Center
Sun 12:36:50 PM 39.8986 -85.8861 348° North 456 525 25,300 -1,113 Descending Indianapolis Center
Sun 12:37:52 PM 40.0172 -85.9172 349° North 446 513 24,200 -634 Descending Indianapolis Center
Sun 12:38:53 PM 40.1353 -85.9511 348° North 443 510 24,000 -110 Descending Indianapolis Center
Sun 12:39:41 PM 40.2306 -85.9753 349° North 442 509 24,000  Level Chicago Center
Sun 12:40:43 PM 40.3494 -86.0075 348° North 441 507 24,000  Level Chicago Center
Sun 12:41:44 PM 40.4669 -86.0403 348° North 438 504 24,000 -585 Level Chicago Center
Sun 12:42:46 PM 40.5742 -86.0958 339° North 415 478 22,800 -1,935 Descending Chicago Center
Sun 12:43:48 PM 40.6906 -86.1786 332° Northwest 401 461 20,000 -2,419 Descending Chicago Center
Sun 12:44:50 PM 40.7772 -86.2406 332° Northwest 391 450 17,800 -2,244 Descending Chicago Center
Sun 12:45:51 PM 40.8700 -86.3056 332° Northwest 383 441 15,400 -2,293 Descending Chicago Center
Sun 12:46:53 PM 40.9617 -86.3708 332° Northwest 373 429 13,100 -2,129 Descending Chicago Center
Sun 12:47:55 PM 41.0614 -86.4536 328° Northwest 352 405 11,000 -1,016 Descending Chicago Center
Sun 12:48:57 PM 41.1239 -86.5483 311° West 340 391 11,000  Level Chicago Center
Sun 12:49:58 PM 41.1864 -86.6442 311° West 339 390 11,000 -488 Level Chicago Center
Sun 12:51:00 PM 41.2517 -86.7433 311° West 332 382 10,000 -484 Descending Chicago Center
Sun 12:52:02 PM 41.3014 -86.8244 309° West 283 326 10,000  Level Chicago Center
Sun 12:53:04 PM 41.3636 -86.9178 312° West 311 358 10,000 -537 Level Chicago Center
Sun 12:54:05 PM 41.4153 -86.9981 311° West 288 331 8,900 -1,171 Descending Chicago Center
Sun 12:55:07 PM 41.4614 -87.0889 304° West 279 321 7,600 -1,113 Descending Chicago Center
Sun 12:56:09 PM 41.4742 -87.1850 280° West 264 304 6,600 -780 Descending Chicago Center
Sun 12:57:10 PM 41.4894 -87.2794 282° West 263 303 6,000 -439 Descending Chicago Center
Sun 12:58:12 PM 41.5056 -87.3806 282° West 261 300 5,700 -484 Descending Chicago Center
Sun 12:59:14 PM 41.5206 -87.4758 282° West 261 300 5,000 -726 Descending Chicago Center
Sun 01:00:16 PM 41.5356 -87.5708 282° West 262 302 4,200 -488 Descending Chicago Center
Sun 01:01:17 PM 41.5453 -87.6714 277° West 253 291 4,000 -98 Descending Chicago Center
Sun 01:02:19 PM 41.5508 -87.7528 275° West 222 255 4,000  Level Chicago Center
Sun 01:03:21 PM 41.5542 -87.8294 273° West 204 235 4,000 -97 Level Chicago Center
Sun 01:04:23 PM 41.5558 -87.8967 272° West 183 211 3,800 -488 Descending Chicago Center
Sun 01:05:24 PM 41.5822 -87.9597 299° West 194 223 3,000 -390 Descending Chicago Center
Sun 01:06:26 PM 41.6322 -87.9439 13° North 208 239 3,000 39 Level Chicago Center
Sun 01:07:58 PM 41.6833 -87.8667 48° Northeast 180 207 3,100 -244 Climbing Chicago TRACON
Sun 01:08:29 PM 41.7092 -87.8464 30° Northeast 182 209 2,500 -968 Descending Chicago Center
Sun 01:09:31 PM 41.7422 -87.8053 43° Northeast 161 185 1,600 -774 Descending Chicago Center
Sun 01:10:33 PM 41.7697 -87.7711 43° Northeast 133 153 900 -488 Descending Chicago Center
Sun 01:11:34 PM 41.7981 -87.7375 41° Northeast 131 151 600 -295 Descending Chicago Center

Login

Don't have an account? Register now (free) for customized features, flight alerts, and more!